createdAt,value
2019-05-22T00:01:06.266Z,41.40
2019-05-22T00:03:45.196Z,39.57
2019-05-22T00:06:18.596Z,45.07
2019-05-22T00:08:50.664Z,34.33
2019-05-22T00:11:22.256Z,27.27
2019-05-22T00:13:52.532Z,27.60
2019-05-22T00:16:24.891Z,26.03
2019-05-22T00:18:56.054Z,28.43
2019-05-22T00:21:26.071Z,24.77
2019-05-22T00:23:57.929Z,22.43
2019-05-22T00:26:29.079Z,30.17
2019-05-22T00:29:00.123Z,26.73
2019-05-22T00:31:31.691Z,24.37
2019-05-22T00:34:05.682Z,19.37
2019-05-22T00:36:37.386Z,27.57
2019-05-22T00:39:08.881Z,21.23
2019-05-22T00:41:41.151Z,20.20
2019-05-22T00:44:13.531Z,22.27
2019-05-22T00:46:45.276Z,18.00
2019-05-22T00:49:17.340Z,25.77
2019-05-22T00:51:58.210Z,23.50
2019-05-22T00:54:49.891Z,23.17
2019-05-22T00:57:35.901Z,27.00
2019-05-22T01:00:25.617Z,23.00
2019-05-22T01:03:00.650Z,23.27
2019-05-22T01:05:31.893Z,31.93
2019-05-22T01:08:08.163Z,38.53
2019-05-22T01:10:40.527Z,33.43
2019-05-22T01:13:45.667Z,31.23
2019-05-22T01:16:18.648Z,32.53
2019-05-22T01:18:50.645Z,38.33
2019-05-22T01:21:22.591Z,28.37
2019-05-22T01:23:56.182Z,29.30
2019-05-22T01:26:27.518Z,30.70
2019-05-22T01:28:57.647Z,34.30
2019-05-22T01:31:36.671Z,35.43
2019-05-22T01:34:16.610Z,27.20
2019-05-22T01:36:51.460Z,39.70
2019-05-22T01:39:48.898Z,30.90
2019-05-22T01:42:23.531Z,32.10
2019-05-22T01:45:03.640Z,28.13
2019-05-22T01:47:36.257Z,30.13
2019-05-22T01:50:08.024Z,53.80
2019-05-22T01:52:38.551Z,29.67
2019-05-22T01:55:10.400Z,38.63
2019-05-22T01:57:41.551Z,29.30
2019-05-22T02:00:12.611Z,33.83
2019-05-22T02:02:44.450Z,31.07
2019-05-22T02:05:16.201Z,32.57
2019-05-22T02:07:46.220Z,30.40
2019-05-22T02:10:20.747Z,37.83
2019-05-22T02:12:53.010Z,40.90
2019-05-22T02:15:26.719Z,42.17
2019-05-22T02:17:57.864Z,33.03
2019-05-22T02:20:30.239Z,30.77
2019-05-22T02:23:00.347Z,45.90
2019-05-22T02:25:35.292Z,57.43
2019-05-22T02:28:06.527Z,38.13
2019-05-22T02:30:40.541Z,41.47
2019-05-22T02:33:12.805Z,38.23
2019-05-22T02:35:43.546Z,47.83
2019-05-22T02:38:13.893Z,32.87
2019-05-22T02:40:48.586Z,38.63
2019-05-22T02:43:19.671Z,37.37
2019-05-22T02:45:50.166Z,32.27
2019-05-22T02:48:22.130Z,32.23
2019-05-22T02:50:53.289Z,30.07
2019-05-22T02:53:24.103Z,37.90
2019-05-22T02:56:13.272Z,39.50
2019-05-22T02:58:44.221Z,31.43
2019-05-22T03:01:17.295Z,52.40
2019-05-22T03:03:47.632Z,54.63
2019-05-22T03:06:18.887Z,34.77
2019-05-22T03:09:10.483Z,52.50
2019-05-22T03:11:43.470Z,37.63
2019-05-22T03:14:14.101Z,31.37
2019-05-22T03:16:52.207Z,55.40
2019-05-22T03:19:27.953Z,57.67
2019-05-22T03:21:59.822Z,44.03
2019-05-22T03:24:32.295Z,54.80
2019-05-22T03:27:04.281Z,49.83
2019-05-22T03:29:42.902Z,40.90
2019-05-22T03:32:14.425Z,42.00
2019-05-22T03:34:44.334Z,40.77
2019-05-22T03:37:15.281Z,39.47
2019-05-22T03:39:46.723Z,41.70
2019-05-22T03:42:19.811Z,43.57
2019-05-22T03:44:52.492Z,81.60
2019-05-22T03:47:23.237Z,44.33
2019-05-22T03:49:55.601Z,55.00
2019-05-22T03:52:27.669Z,61.07
2019-05-22T03:54:59.115Z,41.17
2019-05-22T03:57:30.374Z,52.80
2019-05-22T04:00:01.400Z,42.07
2019-05-22T04:02:32.563Z,45.47
2019-05-22T04:05:05.224Z,33.47
2019-05-22T04:07:35.955Z,64.37
2019-05-22T04:10:06.586Z,40.20
2019-05-22T04:12:37.665Z,59.90
2019-05-22T04:15:10.716Z,72.83
2019-05-22T04:17:43.502Z,47.53
2019-05-22T04:20:16.610Z,67.83
2019-05-22T04:22:48.165Z,43.00
2019-05-22T04:25:19.600Z,44.37
2019-05-22T04:27:50.667Z,63.50
2019-05-22T04:30:21.578Z,47.40
2019-05-22T04:32:53.220Z,65.17
2019-05-22T04:35:25.702Z,49.87
2019-05-22T04:37:57.774Z,63.63
2019-05-22T04:40:47.550Z,47.47
2019-05-22T04:43:22.168Z,48.17
2019-05-22T04:45:54.663Z,58.43
2019-05-22T04:48:27.639Z,60.60
2019-05-22T04:50:59.589Z,66.57
2019-05-22T04:53:30.833Z,52.40
2019-05-22T04:56:01.254Z,57.63
2019-05-22T04:58:32.520Z,50.37
2019-05-22T05:01:02.631Z,50.40
2019-05-22T05:03:33.155Z,88.50
2019-05-22T05:06:06.897Z,93.83
2019-05-22T05:08:37.604Z,63.53
2019-05-22T05:11:08.111Z,87.13
2019-05-22T05:13:41.622Z,81.67
2019-05-22T05:16:11.735Z,87.43
2019-05-22T05:18:42.262Z,71.77
2019-05-22T05:21:12.590Z,81.33
2019-05-22T05:23:43.031Z,99.40
2019-05-22T05:26:13.659Z,58.30
2019-05-22T05:28:44.272Z,55.33
2019-05-22T05:31:14.904Z,56.97
2019-05-22T05:33:52.801Z,55.93
2019-05-22T05:36:23.942Z,89.17
2019-05-22T05:38:56.315Z,123.73
2019-05-22T05:41:27.464Z,138.73
2019-05-22T05:43:59.119Z,118.77
2019-05-22T05:46:29.439Z,122.47
2019-05-22T05:49:01.706Z,93.67
2019-05-22T05:51:50.666Z,109.10
2019-05-22T05:54:32.674Z,68.40
2019-05-22T05:57:24.084Z,91.50
2019-05-22T06:03:09.278Z,104.83
2019-05-22T06:05:53.735Z,73.33
2019-05-22T06:08:26.716Z,52.63
2019-05-22T06:11:16.804Z,70.17
2019-05-22T06:13:48.256Z,54.60
2019-05-22T06:16:41.516Z,51.33
2019-05-22T06:19:14.911Z,60.57
2019-05-22T06:21:50.257Z,43.57
2019-05-22T06:24:36.875Z,55.30
2019-05-22T06:27:26.543Z,48.87
2019-05-22T06:30:11.814Z,45.23
2019-05-22T06:33:07.225Z,40.27
2019-05-22T06:35:39.521Z,38.07
2019-05-22T06:38:17.800Z,39.70
2019-05-22T06:40:48.330Z,36.03
2019-05-22T06:43:35.349Z,41.33
2019-05-22T06:46:12.739Z,35.67
2019-05-22T06:48:49.513Z,32.27
2019-05-22T06:51:25.462Z,30.53
2019-05-22T06:57:01.891Z,26.70
2019-05-22T06:59:48.663Z,25.90
2019-05-22T07:02:22.566Z,25.53
2019-05-22T07:04:55.042Z,23.63
2019-05-22T07:07:29.867Z,22.77
2019-05-22T07:10:05.746Z,24.80
2019-05-22T07:12:38.300Z,24.47
2019-05-22T07:15:51.221Z,22.53
2019-05-22T07:18:23.491Z,25.53
2019-05-22T07:20:58.264Z,25.77
2019-05-22T07:23:34.482Z,18.80
2019-05-22T07:26:10.746Z,13.17
2019-05-22T07:28:40.759Z,12.37
2019-05-22T07:31:10.781Z,12.43
2019-05-22T07:33:40.894Z,10.50
2019-05-22T07:36:16.713Z,11.40
2019-05-22T07:38:43.900Z,13.47
2019-05-22T07:41:14.123Z,15.00
2019-05-22T07:43:44.858Z,13.43
2019-05-22T07:46:17.229Z,13.87
2019-05-22T07:48:48.478Z,14.07
2019-05-22T07:51:20.334Z,14.57
2019-05-22T07:53:51.577Z,13.27
2019-05-22T07:56:23.136Z,16.43
2019-05-22T07:58:53.456Z,16.43
2019-05-22T08:01:24.083Z,15.63
2019-05-22T08:03:55.639Z,14.33
2019-05-22T08:06:25.557Z,14.03
2019-05-22T08:08:55.472Z,15.60
2019-05-22T08:11:26.401Z,14.80
2019-05-22T08:13:58.064Z,13.90
2019-05-22T08:16:30.837Z,12.90
2019-05-22T08:19:00.662Z,14.90
2019-05-22T08:21:31.300Z,13.30
2019-05-22T08:24:01.728Z,14.00
2019-05-22T08:26:34.284Z,16.07
2019-05-22T08:29:05.554Z,14.07
2019-05-22T08:31:38.623Z,14.67
2019-05-22T08:34:10.275Z,14.20
2019-05-22T08:36:40.899Z,14.83
2019-05-22T08:39:11.536Z,15.53
2019-05-22T08:41:43.297Z,13.23
2019-05-22T08:44:17.262Z,13.73
2019-05-22T08:46:47.523Z,14.97
2019-05-22T08:49:18.565Z,14.33
2019-05-22T08:51:49.817Z,19.27
2019-05-22T08:54:20.443Z,16.33
2019-05-22T08:56:51.688Z,15.03
2019-05-22T08:59:22.523Z,16.30
2019-05-22T09:01:52.593Z,16.87
2019-05-22T09:04:23.806Z,18.13
2019-05-22T09:06:54.107Z,16.73
2019-05-22T09:09:24.435Z,16.13
2019-05-22T09:11:55.269Z,14.60
2019-05-22T09:14:26.624Z,15.67
2019-05-22T09:16:57.558Z,15.33
2019-05-22T09:19:30.051Z,16.67
2019-05-22T09:22:01.690Z,14.87
2019-05-22T09:24:36.540Z,13.60
2019-05-22T09:27:07.661Z,15.90
2019-05-22T09:29:39.729Z,16.20
2019-05-22T09:32:11.488Z,17.40
2019-05-22T09:34:43.241Z,15.50
2019-05-22T09:37:14.581Z,14.90
2019-05-22T09:39:45.319Z,14.67
2019-05-22T09:42:17.101Z,15.67
2019-05-22T09:44:47.397Z,13.97
2019-05-22T09:47:18.845Z,13.80
2019-05-22T09:49:50.302Z,15.53
2019-05-22T09:52:22.585Z,13.67
2019-05-22T09:54:53.814Z,13.97
2019-05-22T09:57:24.242Z,13.53
2019-05-22T09:59:54.567Z,13.93
2019-05-22T10:02:25.709Z,13.63
2019-05-22T10:04:56.029Z,12.83
2019-05-22T10:07:26.555Z,13.43
2019-05-22T10:09:56.577Z,13.27
2019-05-22T10:12:27.924Z,12.67
2019-05-22T10:15:01.480Z,12.37
2019-05-22T10:17:32.364Z,14.60
2019-05-22T10:20:04.528Z,12.83
2019-05-22T10:22:35.469Z,82.43
2019-05-22T10:25:15.617Z,12.77
2019-05-22T10:27:38.570Z,12.53
2019-05-22T10:30:10.430Z,14.57
2019-05-22T10:32:41.162Z,11.53
2019-05-22T10:35:12.715Z,13.43
2019-05-22T10:37:44.370Z,14.70
2019-05-22T10:40:15.108Z,17.77
2019-05-22T10:42:46.664Z,16.40
2019-05-22T10:45:18.210Z,16.53
2019-05-22T10:47:53.246Z,19.23
2019-05-22T10:50:24.598Z,19.73
2019-05-22T10:52:55.542Z,26.67
2019-05-22T10:55:26.471Z,19.90
2019-05-22T10:57:56.898Z,19.07
2019-05-22T11:00:29.269Z,20.90
2019-05-22T11:03:00.098Z,21.30
2019-05-22T11:05:31.657Z,20.23
2019-05-22T11:08:02.286Z,20.20
2019-05-22T11:10:34.557Z,24.70
2019-05-22T11:13:06.419Z,21.53
2019-05-22T11:15:37.350Z,23.93
2019-05-22T11:18:11.635Z,24.17
2019-05-22T11:20:43.122Z,21.97
2019-05-22T11:23:14.566Z,25.57
2019-05-22T11:25:46.019Z,21.03
2019-05-22T11:28:16.549Z,21.37
2019-05-22T11:30:46.873Z,20.80
2019-05-22T11:33:19.448Z,21.40
2019-05-22T11:35:50.590Z,23.83
2019-05-22T11:38:21.444Z,27.60
2019-05-22T11:40:52.271Z,22.17
2019-05-22T11:43:22.601Z,20.73
2019-05-22T11:45:53.887Z,23.07
2019-05-22T11:48:25.484Z,21.67
2019-05-22T11:50:56.424Z,23.83
2019-05-22T11:53:28.287Z,22.07
2019-05-22T11:55:59.240Z,20.67
2019-05-22T11:58:29.761Z,22.97
2019-05-22T12:01:02.886Z,22.40
2019-05-22T12:03:36.745Z,23.30
2019-05-22T12:06:08.401Z,22.70
2019-05-22T12:08:38.550Z,27.87
2019-05-22T12:11:09.923Z,24.87
2019-05-22T12:13:40.290Z,24.40
2019-05-22T12:16:12.871Z,22.97
2019-05-22T12:18:43.909Z,23.57
2019-05-22T12:21:14.232Z,23.03
2019-05-22T12:23:45.687Z,24.03
2019-05-22T12:26:17.238Z,24.17
2019-05-22T12:28:48.790Z,24.30
2019-05-22T12:31:21.578Z,22.17
2019-05-22T12:33:54.971Z,23.90
2019-05-22T12:36:26.831Z,22.63
2019-05-22T12:39:02.597Z,26.00
2019-05-22T12:41:33.823Z,31.33
2019-05-22T12:44:05.072Z,29.17
2019-05-22T12:46:35.800Z,34.40
2019-05-22T12:49:08.985Z,28.67
2019-05-22T12:51:40.547Z,32.17
2019-05-22T12:54:11.313Z,30.27
2019-05-22T12:56:46.318Z,30.80
2019-05-22T12:59:17.210Z,30.93
2019-05-22T13:01:49.831Z,30.03
2019-05-22T13:04:21.791Z,33.40
2019-05-22T13:06:52.899Z,32.80
2019-05-22T13:09:23.873Z,33.20
2019-05-22T13:11:55.220Z,31.83
2019-05-22T13:14:25.643Z,31.23
2019-05-22T13:16:56.692Z,31.10
2019-05-22T13:19:28.861Z,29.40
2019-05-22T13:22:00.920Z,28.47
2019-05-22T13:24:35.231Z,34.00
2019-05-22T13:27:08.127Z,34.60
2019-05-22T13:29:40.180Z,33.17
2019-05-22T13:32:13.269Z,31.10
2019-05-22T13:34:45.233Z,37.63
2019-05-22T13:37:16.580Z,32.03
2019-05-22T13:39:47.523Z,34.13
2019-05-22T13:42:18.460Z,35.77
2019-05-22T13:44:49.192Z,36.83
2019-05-22T13:47:19.421Z,38.07
2019-05-22T13:49:51.301Z,34.63
2019-05-22T13:52:22.621Z,35.13
2019-05-22T13:54:53.257Z,41.43
2019-05-22T13:57:25.830Z,37.47
2019-05-22T13:59:56.566Z,34.63
2019-05-22T14:02:27.404Z,34.67
2019-05-22T14:04:59.461Z,22.40
2019-05-22T14:07:30.397Z,16.53
2019-05-22T14:10:01.562Z,13.33
2019-05-22T14:12:32.998Z,12.97
2019-05-22T14:15:04.243Z,10.97
2019-05-22T14:17:43.472Z,9.70
2019-05-22T14:20:14.610Z,17.63
2019-05-22T14:22:44.891Z,10.43
2019-05-22T14:25:17.725Z,11.13
2019-05-22T14:27:48.864Z,11.90
2019-05-22T14:30:20.431Z,8.13
2019-05-22T14:32:50.531Z,7.50
2019-05-22T14:35:22.806Z,10.30
2019-05-22T14:37:53.234Z,5.63
2019-05-22T14:40:23.571Z,5.33
2019-05-22T14:42:53.261Z,5.10
2019-05-22T14:45:24.505Z,3.83
2019-05-22T14:47:55.140Z,4.03
2019-05-22T14:50:26.589Z,4.30
2019-05-22T14:52:57.891Z,3.43
2019-05-22T14:55:30.831Z,5.10
2019-05-22T14:58:03.611Z,9.40
2019-05-22T15:00:40.690Z,9.70
2019-05-22T15:03:13.471Z,4.20
2019-05-22T15:05:45.945Z,3.93
2019-05-22T15:08:19.741Z,4.00
2019-05-22T15:10:50.696Z,4.97
2019-05-22T15:13:22.550Z,9.17
2019-05-22T15:16:00.348Z,6.30
2019-05-22T15:18:31.177Z,6.33
2019-05-22T15:21:09.315Z,9.77
2019-05-22T15:23:43.188Z,5.17
2019-05-22T15:26:18.335Z,4.70
2019-05-22T15:28:49.264Z,7.37
2019-05-22T15:31:20.730Z,5.67
2019-05-22T15:33:52.793Z,5.97
2019-05-22T15:36:25.570Z,5.30
2019-05-22T15:39:04.730Z,4.70
2019-05-22T15:41:38.614Z,9.40
2019-05-22T15:44:11.762Z,8.43
2019-05-22T15:46:44.266Z,6.23
2019-05-22T15:49:15.918Z,5.80
2019-05-22T15:51:59.535Z,5.53
2019-05-22T15:54:33.272Z,5.50
2019-05-22T15:57:09.689Z,5.57
2019-05-22T15:59:39.445Z,6.40
2019-05-22T16:02:11.192Z,8.73
2019-05-22T16:04:42.438Z,7.87
2019-05-22T16:07:14.210Z,7.37
2019-05-22T16:10:06.329Z,8.33
2019-05-22T16:15:47.213Z,6.80
2019-05-22T16:18:20.832Z,6.93
2019-05-22T16:20:51.765Z,5.80
2019-05-22T16:23:22.979Z,6.40
2019-05-22T16:25:54.250Z,5.87
2019-05-22T16:45:20.697Z,6.90
2019-05-22T16:47:51.426Z,7.23
2019-05-22T16:50:22.691Z,5.23
2019-05-22T16:52:54.838Z,6.17
2019-05-22T16:55:25.264Z,5.70
2019-05-22T17:01:27.563Z,6.90
2019-05-22T17:04:00.816Z,8.53
2019-05-22T17:06:42.843Z,9.10
2019-05-22T17:09:50.241Z,9.60
2019-05-22T17:12:22.512Z,9.53
2019-05-22T17:21:56.262Z,6.10
2019-05-22T17:24:27.717Z,8.40
2019-05-22T17:33:26.890Z,8.07
2019-05-22T17:35:59.421Z,11.07
2019-05-22T17:38:32.631Z,8.30
2019-05-22T17:41:04.690Z,8.27
2019-05-22T17:43:36.540Z,9.30
2019-05-22T17:46:10.135Z,8.60
2019-05-22T17:49:25.650Z,7.57
2019-05-22T17:55:24.751Z,9.97
2019-05-22T17:58:09.832Z,4.60
2019-05-22T18:00:49.563Z,5.80
2019-05-22T18:03:27.896Z,7.67
2019-05-22T18:06:16.110Z,6.67
2019-05-22T18:08:58.828Z,20.17
2019-05-22T18:11:31.892Z,6.37
2019-05-22T18:36:13.640Z,7.30
2019-05-22T18:39:48.393Z,9.23
2019-05-22T18:42:21.362Z,8.40
2019-05-22T18:44:51.655Z,5.73
2019-05-22T18:47:51.517Z,4.77
2019-05-22T18:50:22.340Z,4.73
2019-05-22T18:52:57.910Z,4.37
2019-05-22T18:55:45.812Z,5.67
2019-05-22T18:58:22.082Z,4.73
2019-05-22T19:01:29.592Z,4.83
2019-05-22T19:04:19.049Z,6.00
2019-05-22T19:06:55.799Z,3.83
2019-05-22T19:09:28.196Z,4.30
2019-05-22T19:12:05.281Z,6.10
2019-05-22T19:14:39.287Z,4.93
2019-05-22T19:17:28.459Z,4.63
2019-05-22T19:20:02.875Z,4.27
2019-05-22T19:22:35.557Z,6.50
2019-05-22T19:25:06.497Z,5.43
2019-05-22T19:27:41.529Z,6.83
2019-05-22T19:30:14.306Z,8.57
2019-05-22T19:32:45.757Z,5.93
2019-05-22T19:35:16.498Z,5.43
2019-05-22T19:37:47.635Z,5.20
2019-05-22T19:40:21.551Z,6.67
2019-05-22T19:43:03.854Z,4.47
2019-05-22T19:45:42.893Z,4.93
2019-05-22T19:48:17.499Z,6.00
2019-05-22T19:50:50.729Z,5.47
2019-05-22T19:53:32.690Z,2.77
2019-05-22T19:56:28.911Z,3.00
2019-05-22T19:59:04.670Z,4.10
2019-05-22T20:01:40.768Z,4.60
2019-05-22T20:04:14.870Z,3.23
2019-05-22T20:06:46.609Z,5.83
2019-05-22T20:09:19.513Z,4.50
2019-05-22T20:11:49.619Z,5.03
2019-05-22T20:14:30.946Z,4.47
2019-05-22T20:17:02.542Z,4.17
2019-05-22T20:19:39.513Z,4.40
2019-05-22T20:22:11.191Z,3.90
2019-05-22T20:24:41.886Z,4.33
2019-05-22T20:27:13.557Z,4.20
2019-05-22T20:29:44.499Z,4.30
2019-05-22T20:32:17.685Z,4.70
2019-05-22T20:34:50.571Z,6.93
2019-05-22T20:37:22.324Z,4.43
2019-05-22T20:39:52.756Z,5.30
2019-05-22T20:42:25.279Z,4.40
2019-05-22T20:44:57.293Z,5.10
2019-05-22T20:47:29.875Z,6.30
2019-05-22T20:50:04.698Z,5.37
2019-05-22T20:53:08.513Z,4.70
2019-05-22T20:56:06.610Z,6.30
2019-05-22T20:58:44.584Z,5.23
2019-05-22T21:01:15.637Z,5.37
2019-05-22T21:03:46.567Z,5.00
2019-05-22T21:06:19.654Z,8.00
2019-05-22T21:08:51.575Z,5.40
2019-05-22T21:11:28.287Z,5.27
2019-05-22T21:14:01.708Z,8.90
2019-05-22T21:16:33.670Z,4.97
2019-05-22T21:19:37.771Z,6.70
2019-05-22T21:22:26.525Z,7.43
2019-05-22T21:25:10.363Z,5.60
2019-05-22T21:27:43.767Z,4.87
2019-05-22T21:30:23.312Z,8.40
2019-05-22T21:33:06.826Z,6.67
2019-05-22T21:35:40.740Z,6.93
2019-05-22T21:38:12.506Z,5.63
2019-05-22T21:40:45.708Z,7.10
2019-05-22T21:43:17.553Z,6.03
2019-05-22T21:45:52.274Z,11.47
2019-05-22T21:54:59.085Z,9.73
2019-05-22T21:57:29.210Z,7.93
2019-05-22T22:00:08.168Z,9.03
2019-05-22T22:02:52.599Z,10.07
2019-05-22T22:05:28.859Z,10.63
2019-05-22T22:08:08.795Z,13.73
2019-05-22T22:10:39.683Z,8.20
2019-05-22T22:13:19.902Z,12.83
2019-05-22T22:15:52.875Z,14.40
2019-05-22T22:18:24.792Z,8.30
2019-05-22T22:21:00.710Z,10.30
2019-05-22T22:23:34.727Z,15.97
2019-05-22T22:26:24.018Z,7.80
2019-05-22T22:28:40.609Z,13.00
2019-05-22T22:31:13.249Z,14.77
2019-05-22T22:33:46.050Z,15.17
2019-05-22T22:36:41.772Z,12.30
2019-05-22T22:39:25.615Z,11.93
2019-05-22T22:41:59.409Z,10.33
2019-05-22T22:44:31.581Z,8.43
2019-05-22T22:47:12.763Z,10.50
2019-05-22T22:49:46.853Z,10.67
2019-05-22T22:52:20.272Z,9.10
2019-05-22T22:54:57.231Z,9.73
2019-05-22T22:57:47.643Z,15.90
2019-05-22T23:00:26.677Z,10.93
2019-05-22T23:02:58.312Z,10.03
2019-05-22T23:05:29.141Z,12.90
2019-05-22T23:08:00.900Z,9.93
2019-05-22T23:10:33.293Z,9.77
2019-05-22T23:13:12.900Z,14.27
2019-05-22T23:15:43.671Z,6.80
2019-05-22T23:18:17.680Z,8.30
2019-05-22T23:21:02.723Z,9.63
2019-05-22T23:23:29.473Z,10.23
2019-05-22T23:26:06.160Z,12.33
2019-05-22T23:28:40.566Z,10.93
2019-05-22T23:31:17.570Z,10.83
2019-05-22T23:33:53.709Z,9.07
2019-05-22T23:36:24.661Z,7.90
2019-05-22T23:42:15.580Z,12.03
2019-05-22T23:44:48.244Z,8.03
2019-05-22T23:47:19.594Z,13.07
2019-05-22T23:49:54.942Z,8.23
2019-05-22T23:52:29.253Z,6.47
2019-05-22T23:55:15.452Z,6.87
2019-05-22T23:57:47.507Z,6.43
